KBLV/BLV METAR and TAF weather

Enter ICAO airport designator
Station Type Date Time Source
KBLV METAR 2019/04/24 22:41 UTC NOAA

KBLV 242241Z 00000KT 10SM -DZ OVC007 17/17 A2984 RMK AO2A RAB2157E08DZB08E21DZB41 CIG 006 RWY32R SLP107 $


Station Type Date Time Source
KBLV Decoded METAR 2019/04/24 22:41 UTC NOAA

Belleville, Scott AFB/MidAmerica Airport, IL, United States (KBLV) 38-33N 089-51W
Apr 24, 2019 - 06:41 PM EDT / 2019.04.24 2241 UTC
Wind: Calm:0
Visibility: 10 mile(s):0
Sky conditions: overcast
Weather: light drizzle
Temperature: 62 F (17 C)
Dew Point: 62 F (17 C)
Relative Humidity: 100%
Pressure (altimeter): 29.84 in. Hg (1010 hPa)
ob: KBLV 242241Z 00000KT 10SM -DZ OVC007 17/17 A2984 RMK AO2A RAB2157E08DZB08E21DZB41 CIG 006 RWY32R SLP107
cycle: 22

Station Type Date Time Source
KBLV TAF 2019/04/24 19:57 UTC NOAA

TAF
AMD KBLV 241950Z 2419/2522 36008KT 8000 -DZ OVC004 QNH2973INS
BECMG 2516/2517 34006KT 9999 NSW BKN010 OVC018 QNH2970INS
BECMG 2518/2519 34006KT 9999 SCT018 BKN022 QNH2969INS TX17/2421Z TN15/2512Z

Example: see airport list